Etusivu
METAR-TAF:

METAR-TAF

Lentoasemat :

Helsingborg, Ruotsi

Ängelholm-Helsingborgin lentoasema

Leveyspiiri: 56-17-46N, Pituuspiiri: 012-50-50E, korkeus merenpinnasta: 21 m

Tämänhetkinen sää

Tämä raportti tehtiin 19 minuuttia sitten, kello 01.50 UTC
Tuuli 3 kn eri suunnista
Lämpötila
Ilmanpaine 1008 hPa
Näkyvyys: 4000 m
utua

METAR: ESTA 250150Z AUTO VRB03KT 4000 BR SCT003/// ///// Q1008

Aika: 03:09 (02:09 UTC)

Sääennuste

Tämä raportti tehtiin 5 tuntia ja 54 minuuttia sitten, kello 20.15 UTC
Ennuste voimassa 24. päivästä klo 21 UTC - 24. päivään klo 23 UTC
Tuuli 6 kn etelästä
Näkyvyys 10 km tai enemmän
Muutamia pilviä 3000 ft:n korkeudessa
Ajoittain
24. päivästä klo 21 UTC - 24. päivään klo 23 UTC
Näkyvyys: 4000 m
Hajonneita pilviä 800 ft:n korkeudessa
Hajanaisia pilviä 2000 ft:n korkeudessa, Cumulonimbus.
vesikuuroja, utua

TAF: ESTA 242015Z 2421/2423 19006KT 9999 FEW030 TEMPO 2421/2423 4000 SHRA BR BKN008 SCT020CB

Säähavainnot ja -ennusteet yli 4000 lentoasemalta (METAR- ja TAF-raportit).

Käytössä olevat sääasemat on merkitty karttaan keltaisilla ja punaisilla pisteillä.

Aseta hiiri pisteen päälle nähdäksesi sääaseman nimen.

Klikkaa sitten nähdäksesi säähavainnot ja -ennusteet.

Kartan vaihtaminen: klikkaa mustalla rastilla varustettuja vihreitä pisteitä, niin voit zoomata sisään; viivalla varustettua vihreää pistettä, niin voit zoomata ulos tai vihreitä nuolia, niin pääset viereisille kartoille.


METAR-TAF: